Time;durP1;ratioP1;P1;durP2;ratioP2;P2;SDS_P1;SDS_P2;PMS_P1;PMS_P2;Temp;Humidity;BMP_temperature;BMP_pressure;BME280_temperature;BME280_humidity;BME280_pressure;Samples;Min_cycle;Max_cycle;Signal;HPM_P1;HPM_P2
2022/11/25 00:01:43;;;;;;;2.03;0.93;;;17.20;99.90;;;;;;7408439;19;19922;-42
2022/11/25 00:04:12;;;;;;;1.27;0.80;;;17.20;99.90;;;;;;7406418;19;19918;-42
2022/11/25 00:06:41;;;;;;;;;;;17.20;99.90;;;;;;7409091;19;19929;-42
2022/11/25 00:09:13;;;;;;;1.05;0.17;;;17.20;99.90;;;;;;7406423;19;20248;-40
2022/11/25 00:11:43;;;;;;;1.30;0.50;;;17.20;99.90;;;;;;7406587;19;19919;-42
2022/11/25 00:14:15;;;;;;;1.15;0.63;;;17.20;99.90;;;;;;7406588;19;19918;-41
2022/11/25 00:16:47;;;;;;;2.03;0.85;;;17.20;99.90;;;;;;7406512;19;19943;-41
2022/11/25 00:19:15;;;;;;;2.50;1.10;;;17.20;99.90;;;;;;7406545;19;19929;-43
2022/11/25 00:21:45;;;;;;;2.53;0.82;;;17.20;99.90;;;;;;7406439;19;19923;-42
2022/11/25 00:24:17;;;;;;;1.17;0.50;;;17.20;99.90;;;;;;7406361;19;19911;-41
2022/11/25 00:26:46;;;;;;;2.65;0.68;;;17.20;99.90;;;;;;7406179;19;19941;-42
2022/11/25 00:29:15;;;;;;;2.10;0.40;;;17.20;99.90;;;;;;7406142;19;19926;-41
2022/11/25 00:31:46;;;;;;;1.55;0.80;;;17.20;99.90;;;;;;7406463;19;19937;-42
2022/11/25 00:34:16;;;;;;;2.17;0.40;;;17.20;99.90;;;;;;7406151;19;19926;-41
2022/11/25 00:36:45;;;;;;;2.20;0.52;;;17.20;99.90;;;;;;7405263;19;19915;-41
2022/11/25 00:39:17;;;;;;;1.80;0.70;;;17.20;99.90;;;;;;7406129;19;19917;-43
2022/11/25 00:44:38;;;;;;;2.35;0.60;;;17.20;99.90;;;;;;7405168;19;19915;-42
2022/11/25 00:47:11;;;;;;;2.38;0.52;;;17.20;99.90;;;;;;7405871;19;20355;-42
2022/11/25 00:49:42;;;;;;;2.58;0.65;;;17.20;99.90;;;;;;7405695;19;19939;-42
2022/11/25 00:52:14;;;;;;;1.92;0.20;;;17.20;99.90;;;;;;7405582;19;20264;-42
2022/11/25 00:54:43;;;;;;;1.92;0.60;;;17.20;99.90;;;;;;7405258;19;19918;-42
2022/11/25 00:57:12;;;;;;;1.63;0.65;;;17.20;99.90;;;;;;7405650;19;19918;-41
2022/11/25 00:59:41;;;;;;;2.53;0.60;;;17.20;99.90;;;;;;7404803;19;20348;-42
2022/11/25 01:02:13;;;;;;;2.13;0.52;;;17.20;99.90;;;;;;7405410;19;19921;-41
2022/11/25 01:04:42;;;;;;;1.98;0.60;;;17.20;99.90;;;;;;7405003;19;19921;-42
2022/11/25 01:07:12;;;;;;;2.35;0.80;;;17.20;99.90;;;;;;7405245;19;19925;-41
2022/11/25 01:09:41;;;;;;;2.10;0.60;;;17.20;99.90;;;;;;7405168;19;19922;-42
2022/11/25 01:12:10;;;;;;;1.33;0.30;;;17.20;99.90;;;;;;7403786;19;19922;-41
2022/11/25 01:14:40;;;;;;;1.63;0.43;;;17.20;99.90;;;;;;7404961;19;19919;-42
2022/11/25 01:17:09;;;;;;;1.42;1.02;;;17.20;99.90;;;;;;7405024;19;19923;-42
2022/11/25 01:19:40;;;;;;;1.42;0.50;;;17.20;99.90;;;;;;7404663;19;20366;-43
2022/11/25 01:22:10;;;;;;;2.35;0.40;;;17.20;99.90;;;;;;7404537;19;20336;-42
2022/11/25 01:24:38;;;;;;;2.08;0.57;;;17.20;99.90;;;;;;7404633;19;19933;-42
2022/11/25 01:27:07;;;;;;;1.52;0.65;;;17.20;99.90;;;;;;7404282;19;19915;-43
2022/11/25 01:29:36;;;;;;;2.13;0.82;;;17.20;99.90;;;;;;7405019;19;20351;-42
2022/11/25 01:32:07;;;;;;;2.33;0.70;;;17.10;99.90;;;;;;7404350;19;19922;-42
2022/11/25 01:34:36;;;;;;;1.50;0.55;;;17.20;99.90;;;;;;7404274;19;19918;-40
2022/11/25 01:37:08;;;;;;;1.92;0.77;;;17.20;99.90;;;;;;7403683;19;19990;-42
2022/11/25 01:39:38;;;;;;;2.20;0.77;;;17.20;99.90;;;;;;7404340;19;19995;-41
2022/11/25 01:42:07;;;;;;;1.77;1.00;;;17.20;99.90;;;;;;7404519;19;19998;-42
2022/11/25 01:44:41;;;;;;;3.00;0.80;;;17.20;99.90;;;;;;7404056;19;19921;-41
2022/11/25 01:47:16;;;;;;;2.38;0.98;;;17.20;99.90;;;;;;7404547;19;20374;-49
2022/11/25 01:49:48;;;;;;;1.80;0.80;;;17.10;99.90;;;;;;7404418;19;19942;-42
2022/11/25 01:52:25;;;;;;;1.95;0.50;;;17.20;99.90;;;;;;7403939;19;19929;-42
2022/11/25 01:54:57;;;;;;;1.17;0.60;;;17.20;99.90;;;;;;7403843;19;19914;-42
2022/11/25 01:57:30;;;;;;;1.65;0.60;;;17.10;99.90;;;;;;7404101;19;19914;-42
2022/11/25 02:00:02;;;;;;;1.33;0.20;;;17.10;99.90;;;;;;7405145;19;20256;-40
2022/11/25 02:02:32;;;;;;;1.95;0.63;;;17.10;99.90;;;;;;7403727;19;19950;-42
2022/11/25 02:05:02;;;;;;;2.38;0.60;;;17.20;99.90;;;;;;7403769;19;19919;-42
2022/11/25 02:07:37;;;;;;;1.33;0.28;;;17.10;99.90;;;;;;7403333;19;19922;-42
2022/11/25 02:10:09;;;;;;;2.33;0.50;;;17.10;99.90;;;;;;7402475;19;20354;-41
2022/11/25 02:12:42;;;;;;;2.03;0.75;;;17.10;99.90;;;;;;7401862;19;19929;-42
2022/11/25 02:15:12;;;;;;;1.88;0.57;;;17.10;99.90;;;;;;7403393;19;19919;-41
2022/11/25 02:17:41;;;;;;;0.95;0.28;;;17.10;99.90;;;;;;7403286;19;19918;-43
2022/11/25 02:20:12;;;;;;;1.95;0.22;;;17.10;99.90;;;;;;7403306;19;19925;-41
2022/11/25 02:22:53;;;;;;;1.58;0.40;;;17.10;99.90;;;;;;7403202;19;19946;-41
2022/11/25 02:25:27;;;;;;;2.05;0.57;;;17.10;99.90;;;;;;7403014;19;19911;-42
2022/11/25 02:28:00;;;;;;;1.42;0.60;;;17.10;99.90;;;;;;7403072;19;19919;-41
2022/11/25 02:30:29;;;;;;;1.60;0.57;;;17.10;99.90;;;;;;7402531;19;19926;-42
2022/11/25 02:33:00;;;;;;;2.15;0.60;;;17.10;99.90;;;;;;7402595;19;20359;-41
2022/11/25 02:35:32;;;;;;;1.95;0.30;;;17.10;99.90;;;;;;7402567;19;20464;-43
2022/11/25 02:38:07;;;;;;;1.80;0.45;;;17.10;99.90;;;;;;7401489;19;19927;-41
2022/11/25 02:40:43;;;;;;;1.33;0.45;;;17.10;99.90;;;;;;7402585;19;19919;-42
2022/11/25 02:43:12;;;;;;;2.60;0.77;;;17.10;99.90;;;;;;7402221;19;20333;-41
2022/11/25 02:45:51;;;;;;;2.25;0.77;;;17.10;99.90;;;;;;7402063;19;19939;-42
2022/11/25 02:48:20;;;;;;;1.38;0.60;;;17.10;99.90;;;;;;7402241;19;20368;-42
2022/11/25 02:50:49;;;;;;;1.67;0.95;;;17.10;99.90;;;;;;7402496;19;20376;-42
2022/11/25 02:53:19;;;;;;;1.15;0.50;;;17.10;99.90;;;;;;7402024;19;19915;-42
2022/11/25 02:55:51;;;;;;;3.08;0.85;;;17.10;99.90;;;;;;7401382;19;20341;-42
2022/11/25 02:58:20;;;;;;;1.88;0.70;;;17.10;99.90;;;;;;7404680;19;19918;-42
2022/11/25 03:00:50;;;;;;;1.50;0.50;;;17.10;99.90;;;;;;7401787;19;19939;-42
2022/11/25 03:03:19;;;;;;;2.08;0.63;;;17.10;99.90;;;;;;7402281;19;19918;-43
2022/11/25 03:05:48;;;;;;;1.77;0.68;;;17.10;99.90;;;;;;7400702;19;20457;-41
2022/11/25 03:08:17;;;;;;;1.40;0.80;;;17.10;99.90;;;;;;7401400;19;19921;-40
2022/11/25 03:10:46;;;;;;;1.55;0.80;;;17.00;99.90;;;;;;7401363;19;19914;-42
2022/11/25 03:13:18;;;;;;;1.30;0.60;;;17.00;99.90;;;;;;7398759;19;19925;-41
2022/11/25 03:15:47;;;;;;;1.83;0.57;;;17.00;99.90;;;;;;7401834;19;19986;-42
2022/11/25 03:18:15;;;;;;;1.95;0.73;;;17.10;99.90;;;;;;7401179;19;19918;-43
2022/11/25 03:20:44;;;;;;;1.75;1.25;;;17.00;99.90;;;;;;7400984;19;19934;-42
2022/11/25 03:23:13;;;;;;;2.67;0.80;;;17.00;99.90;;;;;;7406633;19;19926;-41
2022/11/25 03:25:42;;;;;;;1.10;0.50;;;17.10;99.90;;;;;;7406989;19;19922;-41
2022/11/25 03:28:11;;;;;;;1.63;0.60;;;17.00;99.90;;;;;;7408188;19;20689;-41
2022/11/25 03:30:43;;;;;;;2.15;0.82;;;17.00;99.90;;;;;;7407919;19;19915;-41
2022/11/25 03:33:12;;;;;;;1.05;0.52;;;17.00;99.90;;;;;;7407408;19;19974;-41
2022/11/25 03:35:40;;;;;;;1.38;0.68;;;17.00;99.90;;;;;;7407640;19;19911;-41
2022/11/25 03:38:09;;;;;;;1.35;0.65;;;17.00;99.90;;;;;;7405691;19;19925;-41
2022/11/25 03:40:38;;;;;;;1.65;0.60;;;17.00;99.90;;;;;;7407555;19;20379;-41
2022/11/25 03:43:07;;;;;;;2.15;0.30;;;17.00;99.90;;;;;;7407966;19;20417;-41
2022/11/25 03:45:36;;;;;;;2.20;0.60;;;17.10;99.90;;;;;;7406664;19;19911;-42
2022/11/25 03:48:07;;;;;;;1.42;0.52;;;17.00;99.90;;;;;;7407755;19;20329;-41
2022/11/25 03:50:36;;;;;;;1.77;0.65;;;17.00;99.90;;;;;;7407623;19;19919;-42
2022/11/25 03:53:05;;;;;;;1.40;1.02;;;17.00;99.90;;;;;;7407401;19;19914;-41
2022/11/25 03:55:34;;;;;;;1.63;0.32;;;17.00;99.90;;;;;;7407413;19;20288;-42
2022/11/25 03:58:03;;;;;;;3.05;0.70;;;17.10;99.90;;;;;;7406766;19;19930;-41
2022/11/25 04:00:32;;;;;;;1.50;0.70;;;17.00;99.90;;;;;;7407106;19;19930;-41
2022/11/25 04:03:01;;;;;;;1.70;0.60;;;17.00;99.90;;;;;;7406876;19;20076;-42
2022/11/25 04:05:32;;;;;;;1.20;0.43;;;17.00;99.90;;;;;;7406605;19;19915;-40
2022/11/25 04:08:01;;;;;;;2.45;0.60;;;17.00;99.90;;;;;;7407188;19;19918;-41
2022/11/25 04:10:31;;;;;;;1.80;0.77;;;17.00;99.90;;;;;;7406760;19;19915;-43
2022/11/25 04:12:57;;;;;;;1.08;0.32;;;17.00;99.90;;;;;;7405033;19;19919;-42
2022/11/25 04:15:26;;;;;;;2.72;1.00;;;17.00;99.90;;;;;;7406695;19;19915;-42
2022/11/25 04:17:55;;;;;;;1.80;0.60;;;17.00;99.90;;;;;;7406384;19;19922;-41
2022/11/25 04:20:24;;;;;;;1.45;0.30;;;17.00;99.90;;;;;;7406861;19;19929;-41
2022/11/25 04:22:56;;;;;;;1.48;0.50;;;17.00;99.90;;;;;;7406808;19;19978;-41
2022/11/25 04:25:25;;;;;;;2.00;0.65;;;17.00;99.90;;;;;;7406102;19;19945;-41
2022/11/25 04:27:53;;;;;;;1.70;0.82;;;17.00;99.90;;;;;;7403638;19;19921;-41
2022/11/25 04:30:22;;;;;;;1.20;0.30;;;17.00;99.90;;;;;;7406219;19;19915;-41
2022/11/25 04:32:51;;;;;;;1.48;0.47;;;17.00;99.90;;;;;;7406259;19;20276;-41
2022/11/25 04:35:20;;;;;;;2.35;0.50;;;17.00;99.90;;;;;;7404532;19;20348;-41
2022/11/25 04:37:49;;;;;;;1.70;0.60;;;17.00;99.90;;;;;;7404458;19;20377;-42
2022/11/25 04:40:21;;;;;;;1.20;0.20;;;17.00;99.90;;;;;;7406833;19;20261;-41
2022/11/25 04:42:50;;;;;;;0.80;0.32;;;17.00;99.90;;;;;;7405951;19;19938;-42
2022/11/25 04:45:20;;;;;;;2.08;0.80;;;17.00;99.90;;;;;;7406090;19;19921;-41
2022/11/25 04:47:49;;;;;;;1.98;0.52;;;16.90;99.90;;;;;;7404054;19;19918;-43
2022/11/25 04:50:20;;;;;;;1.58;0.73;;;17.00;99.90;;;;;;7405622;19;19978;-41
2022/11/25 04:52:49;;;;;;;1.52;0.50;;;17.00;99.90;;;;;;7405974;19;19935;-41
2022/11/25 04:55:21;;;;;;;1.60;0.50;;;17.00;99.90;;;;;;7408070;19;19921;-41
2022/11/25 04:57:50;;;;;;;1.60;0.90;;;17.00;99.90;;;;;;7405185;19;19915;-41
2022/11/25 05:00:18;;;;;;;1.17;0.47;;;16.90;99.90;;;;;;7405446;19;20340;-41
2022/11/25 05:02:46;;;;;;;1.85;0.70;;;17.00;99.90;;;;;;7405503;19;19922;-41
2022/11/25 05:05:15;;;;;;;1.45;0.60;;;17.00;99.90;;;;;;7405268;19;19918;-41
2022/11/25 05:07:44;;;;;;;1.30;0.50;;;16.90;99.90;;;;;;7403506;19;20366;-44
2022/11/25 05:10:13;;;;;;;1.40;0.40;;;16.90;99.90;;;;;;7405165;19;19922;-40
2022/11/25 05:12:45;;;;;;;1.65;0.70;;;16.90;99.90;;;;;;7403773;19;19921;-41
2022/11/25 05:15:14;;;;;;;1.80;0.22;;;16.90;99.90;;;;;;7404972;19;19922;-41
2022/11/25 05:17:43;;;;;;;1.38;0.55;;;16.90;99.90;;;;;;7405357;19;20301;-42
2022/11/25 05:20:13;;;;;;;1.58;0.63;;;16.90;99.90;;;;;;7404777;19;19917;-41
2022/11/25 05:22:42;;;;;;;1.10;0.25;;;16.90;99.90;;;;;;7404526;19;20256;-41
2022/11/25 05:25:12;;;;;;;1.63;0.60;;;16.90;99.90;;;;;;7404728;19;19930;-41
2022/11/25 05:27:41;;;;;;;1.40;0.60;;;16.90;99.90;;;;;;7402485;19;19935;-40
2022/11/25 05:30:13;;;;;;;2.10;0.55;;;16.90;99.90;;;;;;7404535;19;19918;-42
2022/11/25 05:32:43;;;;;;;1.63;0.85;;;16.90;99.90;;;;;;7404590;19;19914;-41
2022/11/25 05:35:12;;;;;;;1.08;0.70;;;17.00;99.90;;;;;;7404807;19;19914;-40
2022/11/25 05:37:42;;;;;;;1.75;0.50;;;16.90;99.90;;;;;;7403140;19;19983;-41
2022/11/25 05:40:12;;;;;;;2.20;0.70;;;16.90;99.90;;;;;;7404103;19;19998;-40
2022/11/25 05:42:41;;;;;;;1.63;0.50;;;16.90;99.90;;;;;;7402620;19;20343;-42
2022/11/25 05:45:13;;;;;;;1.83;0.60;;;16.90;99.90;;;;;;7402593;19;19974;-41
2022/11/25 05:47:42;;;;;;;1.70;0.60;;;16.90;99.90;;;;;;7402270;19;20446;-41
2022/11/25 05:50:11;;;;;;;1.45;0.88;;;16.90;99.90;;;;;;7403917;19;19982;-40
2022/11/25 05:52:40;;;;;;;1.50;0.57;;;16.90;99.90;;;;;;7404482;19;19920;-42
2022/11/25 05:55:10;;;;;;;2.10;0.52;;;16.90;99.90;;;;;;7403842;19;20265;-41
2022/11/25 05:57:39;;;;;;;1.70;0.60;;;16.90;99.90;;;;;;7403608;19;19970;-40
2022/11/25 06:00:09;;;;;;;2.15;0.60;;;16.90;99.90;;;;;;7402078;19;19918;-41
2022/11/25 06:02:41;;;;;;;1.25;0.32;;;16.90;99.90;;;;;;7403546;19;20238;-41
2022/11/25 06:05:10;;;;;;;1.50;0.80;;;16.90;99.90;;;;;;7403219;19;20734;-39
2022/11/25 06:07:39;;;;;;;;;;;16.90;99.90;;;;;;7404451;19;19919;-41
2022/11/25 06:10:09;;;;;;;1.40;0.63;;;16.90;99.90;;;;;;7403494;19;20357;-41
2022/11/25 06:12:38;;;;;;;2.17;0.70;;;16.90;99.90;;;;;;7402345;19;19915;-40
2022/11/25 06:15:09;;;;;;;;;;;16.90;99.90;;;;;;7405676;19;19989;-42
2022/11/25 06:17:37;;;;;;;2.22;0.30;;;16.90;99.90;;;;;;7403047;19;20339;-42
2022/11/25 06:20:10;;;;;;;1.40;0.68;;;16.90;99.90;;;;;;7403176;19;20341;-42
2022/11/25 06:22:39;;;;;;;1.48;0.65;;;16.90;99.90;;;;;;7403216;19;19914;-42
2022/11/25 06:25:09;;;;;;;1.45;0.50;;;16.90;99.90;;;;;;7402995;19;19939;-43
2022/11/25 06:27:38;;;;;;;1.83;0.60;;;16.90;99.90;;;;;;7401505;19;19970;-41
2022/11/25 06:30:11;;;;;;;2.17;1.15;;;16.90;99.90;;;;;;7402774;19;19914;-41
2022/11/25 06:32:40;;;;;;;1.70;0.90;;;16.90;99.90;;;;;;7403585;19;20325;-44
2022/11/25 06:35:12;;;;;;;1.73;0.38;;;16.90;99.90;;;;;;7402683;19;20298;-41
2022/11/25 06:37:41;;;;;;;1.75;0.32;;;16.90;99.90;;;;;;7401414;19;19910;-42
2022/11/25 06:40:11;;;;;;;1.60;0.77;;;16.90;99.90;;;;;;7402577;19;19944;-40
2022/11/25 06:42:42;;;;;;;1.50;0.45;;;16.90;99.90;;;;;;7402331;19;19925;-42
2022/11/25 06:45:12;;;;;;;1.73;0.40;;;16.80;99.90;;;;;;7402224;19;19923;-40
2022/11/25 06:47:41;;;;;;;1.52;0.20;;;16.90;99.90;;;;;;7401306;19;20252;-41
2022/11/25 06:50:12;;;;;;;1.08;0.50;;;16.90;99.90;;;;;;7402417;19;19911;-41
2022/11/25 06:52:41;;;;;;;2.28;0.70;;;16.90;99.90;;;;;;7405123;19;19922;-41
2022/11/25 06:55:11;;;;;;;1.40;0.60;;;16.80;99.90;;;;;;7402341;19;20410;-41
2022/11/25 06:57:40;;;;;;;1.80;0.30;;;16.90;99.90;;;;;;7405189;19;19933;-43
2022/11/25 07:00:10;;;;;;;1.63;0.70;;;16.80;99.90;;;;;;7408793;19;20008;-42
2022/11/25 07:02:39;;;;;;;2.13;0.15;;;16.80;99.90;;;;;;7408975;19;19914;-40
2022/11/25 07:05:08;;;;;;;1.90;0.20;;;16.90;99.90;;;;;;7408919;19;19922;-42
2022/11/25 07:07:40;;;;;;;1.52;0.70;;;16.80;99.90;;;;;;7407140;19;19915;-41
2022/11/25 07:10:10;;;;;;;2.25;0.30;;;16.80;99.90;;;;;;7408261;19;19915;-39
2022/11/25 07:12:39;;;;;;;1.40;0.35;;;16.80;99.90;;;;;;7406511;19;19934;-41
2022/11/25 07:15:09;;;;;;;;;;;16.80;99.90;;;;;;7410919;19;20273;-41
2022/11/25 07:17:37;;;;;;;2.13;0.35;;;16.80;99.90;;;;;;7408138;19;19983;-41
2022/11/25 07:20:08;;;;;;;1.40;0.30;;;16.80;99.90;;;;;;7408080;19;19911;-42
2022/11/25 07:22:40;;;;;;;1.45;0.85;;;16.80;99.90;;;;;;7408160;19;19915;-41
2022/11/25 07:25:09;;;;;;;1.10;0.20;;;16.80;99.90;;;;;;7408185;19;19922;-41
2022/11/25 07:27:38;;;;;;;0.80;0.20;;;16.80;99.90;;;;;;7406139;19;19915;-41
2022/11/25 07:30:11;;;;;;;2.00;0.22;;;16.80;99.90;;;;;;7406040;19;19923;-42
2022/11/25 07:32:40;;;;;;;2.08;0.88;;;16.80;99.90;;;;;;7408478;19;19941;-42
2022/11/25 07:35:09;;;;;;;0.93;0.43;;;16.80;99.90;;;;;;7407358;19;20365;-41
2022/11/25 07:37:40;;;;;;;;;;;16.80;99.90;;;;;;7408938;19;19918;-41
2022/11/25 07:40:11;;;;;;;1.40;0.65;;;16.80;99.90;;;;;;7407464;19;20336;-42
2022/11/25 07:42:40;;;;;;;2.03;0.55;;;16.80;99.90;;;;;;7407879;19;19923;-40
2022/11/25 07:45:10;;;;;;;1.95;0.52;;;16.80;99.90;;;;;;7407273;19;19929;-40
2022/11/25 07:47:38;;;;;;;2.20;0.70;;;16.80;99.90;;;;;;7406109;19;20337;-41
2022/11/25 07:50:09;;;;;;;2.03;0.75;;;16.80;99.90;;;;;;7407765;19;19958;-41
2022/11/25 07:52:42;;;;;;;1.45;0.60;;;16.80;99.90;;;;;;7407141;19;19978;-42
2022/11/25 07:55:11;;;;;;;2.63;0.80;;;16.80;99.90;;;;;;7407495;19;19919;-41
2022/11/25 07:57:40;;;;;;;1.35;0.30;;;16.80;99.90;;;;;;7406739;19;20259;-41
2022/11/25 08:00:10;;;;;;;1.20;0.40;;;16.80;99.90;;;;;;7407023;19;19918;-41
2022/11/25 08:02:39;;;;;;;1.73;0.40;;;16.80;99.90;;;;;;7406770;19;19919;-41
2022/11/25 08:05:09;;;;;;;1.83;0.40;;;16.80;99.90;;;;;;7407139;19;19946;-42
2022/11/25 08:07:38;;;;;;;1.48;0.52;;;16.80;99.90;;;;;;7406164;19;19911;-42
2022/11/25 08:10:11;;;;;;;1.40;0.43;;;16.80;99.90;;;;;;7404899;19;20351;-42
2022/11/25 08:12:40;;;;;;;1.50;0.55;;;16.80;99.90;;;;;;7405164;19;20282;-41
2022/11/25 08:15:10;;;;;;;;;;;16.80;99.90;;;;;;7408861;19;19911;-42
2022/11/25 08:17:39;;;;;;;1.85;0.63;;;16.80;99.90;;;;;;7406597;19;19926;-41
2022/11/25 08:20:09;;;;;;;1.63;0.22;;;16.80;99.90;;;;;;7406642;19;19923;-42
2022/11/25 08:22:38;;;;;;;1.10;0.60;;;16.80;99.90;;;;;;7406974;19;19922;-42
2022/11/25 08:25:10;;;;;;;1.95;0.93;;;16.80;99.90;;;;;;7406226;19;19941;-42
2022/11/25 08:27:40;;;;;;;2.45;0.70;;;16.80;99.90;;;;;;7405297;19;19919;-42
2022/11/25 08:30:10;;;;;;;1.50;0.50;;;16.80;99.90;;;;;;7406431;19;19922;-39
2022/11/25 08:32:39;;;;;;;1.80;0.68;;;16.80;99.90;;;;;;7406368;19;19978;-41
2022/11/25 08:35:09;;;;;;;1.52;0.77;;;16.80;99.90;;;;;;7405901;19;19906;-42
2022/11/25 08:37:38;;;;;;;2.05;0.68;;;16.80;99.90;;;;;;7404640;19;19974;-41
2022/11/25 08:40:11;;;;;;;1.10;0.10;;;16.80;99.90;;;;;;7406137;19;19926;-41
2022/11/25 08:42:40;;;;;;;1.35;0.20;;;16.80;99.90;;;;;;7408629;19;19915;-41
2022/11/25 08:45:11;;;;;;;1.00;0.10;;;16.80;99.90;;;;;;7406046;19;19914;-41
2022/11/25 08:47:40;;;;;;;1.25;0.90;;;16.80;99.90;;;;;;7405290;19;20359;-41
2022/11/25 08:50:11;;;;;;;1.73;0.45;;;16.80;99.90;;;;;;7409149;19;19907;-41
2022/11/25 08:52:40;;;;;;;2.22;0.60;;;16.80;99.90;;;;;;7405866;19;19922;-41
2022/11/25 08:55:12;;;;;;;1.35;0.52;;;16.80;99.90;;;;;;7405769;19;19918;-41
2022/11/25 08:57:41;;;;;;;1.90;0.50;;;16.80;99.90;;;;;;7405106;19;19926;-42
2022/11/25 09:00:12;;;;;;;1.17;0.40;;;16.80;99.90;;;;;;7405365;19;19927;-41
2022/11/25 09:02:41;;;;;;;2.55;1.25;;;16.80;99.90;;;;;;7405859;19;20021;-41
2022/11/25 09:05:12;;;;;;;1.65;0.55;;;16.80;99.90;;;;;;7405348;19;19918;-41
2022/11/25 09:07:41;;;;;;;0.77;0.20;;;16.80;99.90;;;;;;7404857;19;19926;-40
2022/11/25 09:10:17;;;;;;;1.48;0.60;;;16.80;99.90;;;;;;7405398;19;19921;-41
2022/11/25 09:12:46;;;;;;;1.20;0.65;;;16.80;99.90;;;;;;7404002;19;19922;-41
2022/11/25 09:15:15;;;;;;;;;;;16.80;99.90;;;;;;7407457;19;19921;-40
2022/11/25 09:17:44;;;;;;;1.60;0.20;;;16.80;99.90;;;;;;7404891;19;19918;-41
2022/11/25 09:20:14;;;;;;;1.33;0.10;;;16.80;99.90;;;;;;7404554;19;20344;-42
2022/11/25 09:22:43;;;;;;;1.17;0.47;;;16.80;99.90;;;;;;7404646;19;20274;-41
2022/11/25 09:25:14;;;;;;;1.08;0.47;;;16.90;99.90;;;;;;7405008;19;19915;-39
2022/11/25 09:27:43;;;;;;;2.35;1.00;;;16.90;99.90;;;;;;7403661;19;19914;-42
2022/11/25 09:30:13;;;;;;;2.17;0.82;;;16.90;99.90;;;;;;7404446;19;19926;-42
2022/11/25 09:32:42;;;;;;;1.58;0.40;;;16.90;99.90;;;;;;7404917;19;19925;-42
2022/11/25 09:35:11;;;;;;;1.38;0.60;;;16.90;99.90;;;;;;7404188;19;19922;-41
2022/11/25 09:37:40;;;;;;;2.67;0.30;;;16.90;99.90;;;;;;7403360;19;19923;-42
2022/11/25 09:40:15;;;;;;;1.42;0.68;;;16.90;99.90;;;;;;7404357;19;19921;-42
2022/11/25 09:48:51;;;;;;;1.73;0.75;;;16.90;99.90;;;;;;7406336;19;19970;-41
2022/11/25 09:51:23;;;;;;;1.25;0.20;;;17.00;99.90;;;;;;7404094;19;19925;-41
2022/11/25 09:53:56;;;;;;;1.40;0.10;;;17.00;99.90;;;;;;7404069;19;19915;-41
2022/11/25 09:56:33;;;;;;;2.58;0.68;;;17.00;99.90;;;;;;7403602;19;19919;-40
2022/11/25 09:59:09;;;;;;;1.48;0.38;;;17.00;99.90;;;;;;7403820;19;20311;-42
2022/11/25 10:01:47;;;;;;;2.35;0.70;;;17.00;99.90;;;;;;7403633;19;19979;-41
2022/11/25 10:04:22;;;;;;;3.03;1.45;;;17.00;99.90;;;;;;7404242;19;19922;-41
2022/11/25 10:06:56;;;;;;;2.13;0.55;;;17.00;99.90;;;;;;7403199;19;20282;-41
2022/11/25 10:09:28;;;;;;;1.30;0.50;;;17.00;99.90;;;;;;7402257;19;20398;-42
2022/11/25 10:12:00;;;;;;;1.55;0.30;;;17.00;99.90;;;;;;7403130;19;19922;-42
2022/11/25 10:14:41;;;;;;;1.92;0.22;;;17.00;99.90;;;;;;7405686;19;19924;-42
2022/11/25 10:17:19;;;;;;;1.73;0.77;;;17.10;99.90;;;;;;7408304;19;19919;-41
2022/11/25 10:19:56;;;;;;;2.22;0.68;;;17.10;99.90;;;;;;7405438;19;19914;-42
2022/11/25 10:22:28;;;;;;;1.58;0.60;;;17.10;99.90;;;;;;7403650;19;20345;-41
2022/11/25 10:25:01;;;;;;;1.98;0.60;;;17.10;99.90;;;;;;7405090;19;19927;-41
2022/11/25 10:27:40;;;;;;;2.70;0.70;;;17.10;99.90;;;;;;7402572;19;19919;-41
2022/11/25 10:30:18;;;;;;;1.50;0.60;;;17.10;99.90;;;;;;7404122;19;19918;-40
2022/11/25 10:32:52;;;;;;;2.47;1.23;;;17.10;99.90;;;;;;7401410;19;19918;-41
2022/11/25 10:35:29;;;;;;;1.50;0.60;;;17.10;99.90;;;;;;7402827;19;19954;-41
2022/11/25 10:38:01;;;;;;;2.00;0.80;;;17.10;99.90;;;;;;7401244;19;19918;-41
2022/11/25 10:40:30;;;;;;;1.52;0.65;;;17.10;99.90;;;;;;7402731;19;19917;-41
2022/11/25 10:43:00;;;;;;;2.95;0.82;;;17.20;99.90;;;;;;7402356;19;19915;-40
2022/11/25 10:45:41;;;;;;;1.50;0.32;;;17.10;99.90;;;;;;7402163;19;19919;-42
2022/11/25 10:48:25;;;;;;;1.10;0.25;;;17.20;99.90;;;;;;7402300;19;19907;-41
2022/11/25 10:51:09;;;;;;;2.72;0.80;;;17.20;99.90;;;;;;7402029;19;19925;-41
2022/11/25 10:53:40;;;;;;;1.95;0.25;;;17.20;99.90;;;;;;7402274;19;19918;-41
2022/11/25 10:56:18;;;;;;;1.65;0.30;;;17.30;99.90;;;;;;7401832;19;19919;-41
2022/11/25 10:58:50;;;;;;;3.10;0.80;;;17.30;99.90;;;;;;7402117;19;19990;-42
2022/11/25 11:01:24;;;;;;;2.17;0.63;;;17.30;99.90;;;;;;7401740;19;19915;-43
2022/11/25 11:03:56;;;;;;;1.95;0.60;;;17.30;99.90;;;;;;7402063;19;19925;-42
2022/11/25 11:06:33;;;;;;;1.95;0.90;;;17.30;99.90;;;;;;7402408;19;19987;-40
2022/11/25 11:09:02;;;;;;;1.35;0.70;;;17.30;99.90;;;;;;7400613;19;20369;-41
2022/11/25 11:11:32;;;;;;;1.60;0.20;;;17.30;99.90;;;;;;7401248;19;20241;-40
2022/11/25 11:14:23;;;;;;;2.63;0.70;;;17.30;99.90;;;;;;7401705;19;19919;-41
2022/11/25 11:16:57;;;;;;;1.75;0.68;;;17.40;99.90;;;;;;7400908;19;19921;-41
2022/11/25 11:19:30;;;;;;;2.45;0.90;;;17.40;99.90;;;;;;7401158;19;19915;-40
2022/11/25 11:22:17;;;;;;;2.17;0.60;;;17.40;99.90;;;;;;7400994;19;19919;-40
2022/11/25 11:24:46;;;;;;;2.45;0.22;;;17.40;99.90;;;;;;7400859;19;20382;-41
2022/11/25 11:27:22;;;;;;;2.75;0.80;;;17.40;99.90;;;;;;7401396;19;19918;-43
2022/11/25 11:30:05;;;;;;;2.08;0.65;;;17.40;99.90;;;;;;7399205;19;19910;-40
2022/11/25 11:32:37;;;;;;;2.47;0.80;;;17.40;99.90;;;;;;7401030;19;19922;-40
2022/11/25 11:35:13;;;;;;;1.42;0.50;;;17.40;99.90;;;;;;7400833;19;19914;-41
2022/11/25 11:37:45;;;;;;;2.58;0.90;;;17.40;99.90;;;;;;7399437;19;19940;-41
2022/11/25 11:40:26;;;;;;;1.60;0.35;;;17.50;99.90;;;;;;7400567;19;20282;-41
2022/11/25 11:43:08;;;;;;;1.42;0.80;;;17.50;99.90;;;;;;7400555;19;19953;-42
2022/11/25 11:45:50;;;;;;;1.30;0.47;;;17.50;99.90;;;;;;7410855;19;19918;-40
2022/11/25 11:48:29;;;;;;;1.75;0.80;;;17.50;99.90;;;;;;7407067;19;19915;-40
2022/11/25 11:51:07;;;;;;;1.73;0.40;;;17.60;99.90;;;;;;7407651;19;19918;-41
2022/11/25 11:53:46;;;;;;;3.28;0.30;;;17.60;99.90;;;;;;7407684;19;20303;-41
2022/11/25 11:56:22;;;;;;;1.45;0.63;;;17.60;99.90;;;;;;7407097;19;19919;-41
2022/11/25 11:58:58;;;;;;;1.45;0.50;;;17.60;99.90;;;;;;7407655;19;19972;-41
2022/11/25 12:01:45;;;;;;;1.90;0.68;;;17.60;99.90;;;;;;7406835;19;19915;-42
2022/11/25 12:04:22;;;;;;;1.67;0.55;;;17.70;99.90;;;;;;7407013;19;19919;-41
2022/11/25 12:07:01;;;;;;;1.75;0.60;;;17.70;99.90;;;;;;7406778;19;19978;-40
2022/11/25 12:09:34;;;;;;;1.98;0.65;;;17.70;99.90;;;;;;7405092;19;20695;-41
2022/11/25 12:12:07;;;;;;;1.98;0.80;;;17.70;99.90;;;;;;7406167;19;19926;-40
2022/11/25 12:14:42;;;;;;;1.80;0.60;;;17.70;99.90;;;;;;7406574;19;19910;-40
2022/11/25 12:17:20;;;;;;;1.80;0.68;;;17.70;99.90;;;;;;7406669;19;19911;-41
2022/11/25 12:19:58;;;;;;;2.83;0.60;;;17.70;99.90;;;;;;7406541;19;19933;-41
2022/11/25 12:22:31;;;;;;;1.48;0.68;;;17.70;99.90;;;;;;7406812;19;19939;-40
2022/11/25 12:25:07;;;;;;;1.77;0.60;;;17.70;99.90;;;;;;7406640;19;19919;-41
2022/11/25 12:27:40;;;;;;;1.42;0.75;;;17.70;99.90;;;;;;7406235;19;19925;-41
2022/11/25 12:30:14;;;;;;;2.08;0.20;;;17.80;99.90;;;;;;7404302;19;19977;-41
2022/11/25 12:32:53;;;;;;;1.70;0.30;;;17.80;99.90;;;;;;7406149;19;20331;-42
2022/11/25 12:35:32;;;;;;;1.90;0.65;;;17.70;99.90;;;;;;7406934;19;19918;-41
2022/11/25 12:38:07;;;;;;;1.83;0.63;;;17.70;99.90;;;;;;7404544;19;19910;-40
2022/11/25 12:40:42;;;;;;;1.75;0.70;;;17.70;99.90;;;;;;7405923;19;19914;-41
2022/11/25 12:43:25;;;;;;;3.30;1.05;;;17.70;99.90;;;;;;7406518;19;19925;-39
2022/11/25 12:46:06;;;;;;;1.70;0.68;;;17.70;99.90;;;;;;7405984;19;19993;-43
2022/11/25 12:48:38;;;;;;;2.47;0.60;;;17.70;99.90;;;;;;7405367;19;19918;-40
2022/11/25 12:51:31;;;;;;;2.17;0.77;;;17.70;99.90;;;;;;7406108;19;19941;-42
2022/11/25 12:54:12;;;;;;;1.65;0.22;;;17.70;99.90;;;;;;7405647;19;20296;-41
2022/11/25 12:56:57;;;;;;;1.77;0.60;;;17.70;99.90;;;;;;7404531;19;19919;-42
2022/11/25 12:59:52;;;;;;;2.53;0.43;;;17.70;99.90;;;;;;7405892;19;20356;-42
2022/11/25 13:02:43;;;;;;;1.83;0.80;;;17.70;99.90;;;;;;7405130;19;20388;-41
2022/11/25 13:05:37;;;;;;;1.48;0.20;;;17.70;99.90;;;;;;7405194;19;20301;-41
2022/11/25 13:08:20;;;;;;;2.67;0.52;;;17.70;99.90;;;;;;7405006;19;20345;-42
2022/11/25 13:11:03;;;;;;;1.77;0.70;;;17.70;99.90;;;;;;7403526;19;19923;-41
2022/11/25 13:13:47;;;;;;;1.80;0.38;;;17.70;99.90;;;;;;7403636;19;19918;-42
2022/11/25 13:16:17;;;;;;;3.65;1.00;;;17.70;99.90;;;;;;7408440;19;19985;-40
2022/11/25 13:18:47;;;;;;;1.98;0.80;;;17.70;99.90;;;;;;7404805;19;19915;-42
2022/11/25 13:21:18;;;;;;;2.45;0.63;;;17.70;99.90;;;;;;7405246;19;19918;-42